sensor_id;sensor_type;location;lat;lon;timestamp;temperature;humidity
20442;DHT22;10380;52.102;20.614;2023-02-21T00:00:39;8.20;99.90
20442;DHT22;10380;52.102;20.614;2023-02-21T00:03:24;8.20;99.90
20442;DHT22;10380;52.102;20.614;2023-02-21T00:06:10;8.30;99.90
20442;DHT22;10380;52.102;20.614;2023-02-21T00:08:55;8.30;99.90
20442;DHT22;10380;52.102;20.614;2023-02-21T00:11:42;8.30;99.90
20442;DHT22;10380;52.102;20.614;2023-02-21T00:14:28;8.20;99.90
20442;DHT22;10380;52.102;20.614;2023-02-21T00:17:14;8.30;99.90
20442;DHT22;10380;52.102;20.614;2023-02-21T00:20:01;8.30;99.90
20442;DHT22;10380;52.102;20.614;2023-02-21T00:22:46;8.20;99.90
20442;DHT22;10380;52.102;20.614;2023-02-21T00:25:32;8.10;99.90
20442;DHT22;10380;52.102;20.614;2023-02-21T00:28:17;8.10;99.90
20442;DHT22;10380;52.102;20.614;2023-02-21T00:31:03;7.90;99.90
20442;DHT22;10380;52.102;20.614;2023-02-21T00:33:49;7.90;99.90
20442;DHT22;10380;52.102;20.614;2023-02-21T00:36:35;8.00;99.90
20442;DHT22;10380;52.102;20.614;2023-02-21T00:39:20;7.90;99.90
20442;DHT22;10380;52.102;20.614;2023-02-21T00:42:07;8.00;99.90
20442;DHT22;10380;52.102;20.614;2023-02-21T00:44:53;8.00;99.90
20442;DHT22;10380;52.102;20.614;2023-02-21T00:47:38;8.00;99.90
20442;DHT22;10380;52.102;20.614;2023-02-21T00:50:25;8.00;99.90
20442;DHT22;10380;52.102;20.614;2023-02-21T00:53:11;8.00;99.90
20442;DHT22;10380;52.102;20.614;2023-02-21T00:55:56;8.00;99.90
20442;DHT22;10380;52.102;20.614;2023-02-21T00:58:42;8.00;99.90
20442;DHT22;10380;52.102;20.614;2023-02-21T01:01:28;8.00;99.90
20442;DHT22;10380;52.102;20.614;2023-02-21T01:04:13;8.00;99.90
20442;DHT22;10380;52.102;20.614;2023-02-21T01:06:58;8.00;99.90
20442;DHT22;10380;52.102;20.614;2023-02-21T01:09:44;8.00;99.90
20442;DHT22;10380;52.102;20.614;2023-02-21T01:12:31;8.10;99.90
20442;DHT22;10380;52.102;20.614;2023-02-21T01:15:17;8.10;99.90
20442;DHT22;10380;52.102;20.614;2023-02-21T01:18:02;8.10;99.90
20442;DHT22;10380;52.102;20.614;2023-02-21T01:20:48;8.10;99.90
20442;DHT22;10380;52.102;20.614;2023-02-21T01:23:33;8.10;99.90
20442;DHT22;10380;52.102;20.614;2023-02-21T01:26:19;8.10;99.90
20442;DHT22;10380;52.102;20.614;2023-02-21T01:29:04;8.10;99.90
20442;DHT22;10380;52.102;20.614;2023-02-21T01:31:50;8.00;99.90
20442;DHT22;10380;52.102;20.614;2023-02-21T01:34:35;8.00;99.90
20442;DHT22;10380;52.102;20.614;2023-02-21T01:37:21;8.00;99.90
20442;DHT22;10380;52.102;20.614;2023-02-21T01:40:07;8.00;99.90
20442;DHT22;10380;52.102;20.614;2023-02-21T01:42:58;8.00;99.90
20442;DHT22;10380;52.102;20.614;2023-02-21T01:45:49;8.00;99.90
20442;DHT22;10380;52.102;20.614;2023-02-21T01:48:35;8.10;99.90
20442;DHT22;10380;52.102;20.614;2023-02-21T01:51:27;8.10;99.90
20442;DHT22;10380;52.102;20.614;2023-02-21T01:54:17;8.20;99.90
20442;DHT22;10380;52.102;20.614;2023-02-21T01:57:05;8.20;99.90
20442;DHT22;10380;52.102;20.614;2023-02-21T01:59:53;8.30;99.90
20442;DHT22;10380;52.102;20.614;2023-02-21T02:05:32;8.40;99.90
20442;DHT22;10380;52.102;20.614;2023-02-21T02:08:20;8.30;99.90
20442;DHT22;10380;52.102;20.614;2023-02-21T02:20:22;8.30;99.90
20442;DHT22;10380;52.102;20.614;2023-02-21T02:23:08;8.20;99.90
20442;DHT22;10380;52.102;20.614;2023-02-21T02:25:52;8.20;99.90
20442;DHT22;10380;52.102;20.614;2023-02-21T02:33:51;8.30;99.90
20442;DHT22;10380;52.102;20.614;2023-02-21T02:36:43;8.40;99.90
20442;DHT22;10380;52.102;20.614;2023-02-21T02:39:44;8.30;99.90
20442;DHT22;10380;52.102;20.614;2023-02-21T02:45:19;8.30;99.90
20442;DHT22;10380;52.102;20.614;2023-02-21T02:47:53;8.30;99.90
20442;DHT22;10380;52.102;20.614;2023-02-21T02:50:22;8.30;99.90
20442;DHT22;10380;52.102;20.614;2023-02-21T02:52:53;8.30;99.90
20442;DHT22;10380;52.102;20.614;2023-02-21T02:57:57;8.20;99.90
20442;DHT22;10380;52.102;20.614;2023-02-21T03:00:25;8.20;99.90
20442;DHT22;10380;52.102;20.614;2023-02-21T03:03:33;8.10;99.90
20442;DHT22;10380;52.102;20.614;2023-02-21T03:11:20;8.00;99.90
20442;DHT22;10380;52.102;20.614;2023-02-21T03:19:14;7.90;99.90
20442;DHT22;10380;52.102;20.614;2023-02-21T03:22:42;7.90;99.90
20442;DHT22;10380;52.102;20.614;2023-02-21T03:24:50;7.90;99.90
20442;DHT22;10380;52.102;20.614;2023-02-21T03:27:19;7.80;99.90
20442;DHT22;10380;52.102;20.614;2023-02-21T03:29:48;7.80;99.90
20442;DHT22;10380;52.102;20.614;2023-02-21T03:32:32;7.80;99.90
20442;DHT22;10380;52.102;20.614;2023-02-21T03:35:00;7.70;99.90
20442;DHT22;10380;52.102;20.614;2023-02-21T03:37:32;7.70;99.90
20442;DHT22;10380;52.102;20.614;2023-02-21T03:40:00;7.70;99.90
20442;DHT22;10380;52.102;20.614;2023-02-21T03:42:28;7.60;99.90
20442;DHT22;10380;52.102;20.614;2023-02-21T03:44:55;7.60;99.90
20442;DHT22;10380;52.102;20.614;2023-02-21T03:47:21;7.60;99.90
20442;DHT22;10380;52.102;20.614;2023-02-21T03:49:49;7.60;99.90
20442;DHT22;10380;52.102;20.614;2023-02-21T03:52:17;7.60;99.90
20442;DHT22;10380;52.102;20.614;2023-02-21T03:54:44;7.50;99.90
20442;DHT22;10380;52.102;20.614;2023-02-21T03:57:11;7.50;99.90
20442;DHT22;10380;52.102;20.614;2023-02-21T03:59:38;7.50;99.90
20442;DHT22;10380;52.102;20.614;2023-02-21T04:02:06;7.40;99.90
20442;DHT22;10380;52.102;20.614;2023-02-21T04:04:33;7.40;99.90
20442;DHT22;10380;52.102;20.614;2023-02-21T04:07:00;7.40;99.90
20442;DHT22;10380;52.102;20.614;2023-02-21T04:09:27;7.30;99.90
20442;DHT22;10380;52.102;20.614;2023-02-21T04:11:54;7.30;99.90
20442;DHT22;10380;52.102;20.614;2023-02-21T04:14:22;7.20;99.90
20442;DHT22;10380;52.102;20.614;2023-02-21T04:16:48;7.20;99.90
20442;DHT22;10380;52.102;20.614;2023-02-21T04:19:16;7.10;99.90
20442;DHT22;10380;52.102;20.614;2023-02-21T04:21:43;7.10;99.90
20442;DHT22;10380;52.102;20.614;2023-02-21T04:24:10;7.00;99.90
20442;DHT22;10380;52.102;20.614;2023-02-21T04:26:37;7.00;99.90
20442;DHT22;10380;52.102;20.614;2023-02-21T04:29:05;6.90;99.90
20442;DHT22;10380;52.102;20.614;2023-02-21T04:31:32;6.90;99.90
20442;DHT22;10380;52.102;20.614;2023-02-21T04:33:59;6.90;99.90
20442;DHT22;10380;52.102;20.614;2023-02-21T04:36:39;6.80;99.90
20442;DHT22;10380;52.102;20.614;2023-02-21T04:39:06;6.80;99.90
20442;DHT22;10380;52.102;20.614;2023-02-21T04:41:33;6.80;99.90
20442;DHT22;10380;52.102;20.614;2023-02-21T04:44:02;6.70;99.90
20442;DHT22;10380;52.102;20.614;2023-02-21T04:46:30;6.70;99.90
20442;DHT22;10380;52.102;20.614;2023-02-21T04:48:57;6.70;99.90
20442;DHT22;10380;52.102;20.614;2023-02-21T04:51:25;6.70;99.90
20442;DHT22;10380;52.102;20.614;2023-02-21T04:53:53;6.60;99.90
20442;DHT22;10380;52.102;20.614;2023-02-21T04:56:23;6.60;99.90
20442;DHT22;10380;52.102;20.614;2023-02-21T04:58:51;6.60;99.90
20442;DHT22;10380;52.102;20.614;2023-02-21T05:01:18;6.60;99.90
20442;DHT22;10380;52.102;20.614;2023-02-21T05:03:46;6.60;99.90
20442;DHT22;10380;52.102;20.614;2023-02-21T05:06:21;6.60;99.90
20442;DHT22;10380;52.102;20.614;2023-02-21T05:08:48;6.60;99.90
20442;DHT22;10380;52.102;20.614;2023-02-21T05:11:16;6.50;99.90
20442;DHT22;10380;52.102;20.614;2023-02-21T05:13:44;6.60;99.90
20442;DHT22;10380;52.102;20.614;2023-02-21T05:16:11;6.60;99.90
20442;DHT22;10380;52.102;20.614;2023-02-21T05:18:41;6.50;99.90
20442;DHT22;10380;52.102;20.614;2023-02-21T05:21:08;6.50;99.90
20442;DHT22;10380;52.102;20.614;2023-02-21T05:23:38;6.50;99.90
20442;DHT22;10380;52.102;20.614;2023-02-21T05:26:09;6.50;99.90
20442;DHT22;10380;52.102;20.614;2023-02-21T05:28:38;6.40;99.90
20442;DHT22;10380;52.102;20.614;2023-02-21T05:31:06;6.40;99.90
20442;DHT22;10380;52.102;20.614;2023-02-21T05:33:33;6.40;99.90
20442;DHT22;10380;52.102;20.614;2023-02-21T05:36:00;6.40;99.90
20442;DHT22;10380;52.102;20.614;2023-02-21T05:38:27;6.30;99.90
20442;DHT22;10380;52.102;20.614;2023-02-21T05:40:55;6.30;99.90
20442;DHT22;10380;52.102;20.614;2023-02-21T05:43:22;6.30;99.90
20442;DHT22;10380;52.102;20.614;2023-02-21T05:45:50;6.30;99.90
20442;DHT22;10380;52.102;20.614;2023-02-21T05:48:17;6.30;99.90
20442;DHT22;10380;52.102;20.614;2023-02-21T05:50:44;6.30;99.90
20442;DHT22;10380;52.102;20.614;2023-02-21T05:53:13;6.40;99.90
20442;DHT22;10380;52.102;20.614;2023-02-21T05:55:40;6.40;99.90
20442;DHT22;10380;52.102;20.614;2023-02-21T05:58:07;6.50;99.90
20442;DHT22;10380;52.102;20.614;2023-02-21T06:00:34;6.50;99.90
20442;DHT22;10380;52.102;20.614;2023-02-21T06:03:01;6.50;99.90
20442;DHT22;10380;52.102;20.614;2023-02-21T06:05:30;6.60;99.90
20442;DHT22;10380;52.102;20.614;2023-02-21T06:07:58;6.60;99.90
20442;DHT22;10380;52.102;20.614;2023-02-21T06:10:25;6.60;99.90
20442;DHT22;10380;52.102;20.614;2023-02-21T06:12:53;6.70;99.90
20442;DHT22;10380;52.102;20.614;2023-02-21T06:15:20;6.70;99.90
20442;DHT22;10380;52.102;20.614;2023-02-21T06:17:46;6.70;99.90
20442;DHT22;10380;52.102;20.614;2023-02-21T06:20:14;6.80;99.90
20442;DHT22;10380;52.102;20.614;2023-02-21T06:22:42;6.80;99.90
20442;DHT22;10380;52.102;20.614;2023-02-21T06:25:10;6.80;99.90
20442;DHT22;10380;52.102;20.614;2023-02-21T06:27:37;6.80;99.90
20442;DHT22;10380;52.102;20.614;2023-02-21T06:30:05;6.80;99.90
20442;DHT22;10380;52.102;20.614;2023-02-21T06:32:33;6.80;99.90
20442;DHT22;10380;52.102;20.614;2023-02-21T06:35:00;6.90;99.90
20442;DHT22;10380;52.102;20.614;2023-02-21T06:37:27;6.90;99.90
20442;DHT22;10380;52.102;20.614;2023-02-21T06:39:54;6.90;99.90
20442;DHT22;10380;52.102;20.614;2023-02-21T06:42:23;6.90;99.90
20442;DHT22;10380;52.102;20.614;2023-02-21T06:44:50;7.00;99.90
20442;DHT22;10380;52.102;20.614;2023-02-21T06:47:17;6.90;99.90
20442;DHT22;10380;52.102;20.614;2023-02-21T06:49:44;6.90;99.90
20442;DHT22;10380;52.102;20.614;2023-02-21T06:52:11;7.00;99.90
20442;DHT22;10380;52.102;20.614;2023-02-21T06:54:38;7.00;99.90
20442;DHT22;10380;52.102;20.614;2023-02-21T06:57:05;7.00;99.90
20442;DHT22;10380;52.102;20.614;2023-02-21T06:59:32;7.00;99.90
20442;DHT22;10380;52.102;20.614;2023-02-21T07:01:59;7.00;99.90
20442;DHT22;10380;52.102;20.614;2023-02-21T07:04:26;7.00;99.90
20442;DHT22;10380;52.102;20.614;2023-02-21T07:06:53;7.00;99.90
20442;DHT22;10380;52.102;20.614;2023-02-21T07:09:20;7.00;99.90
20442;DHT22;10380;52.102;20.614;2023-02-21T07:11:47;7.10;99.90
20442;DHT22;10380;52.102;20.614;2023-02-21T07:14:14;7.10;99.90
20442;DHT22;10380;52.102;20.614;2023-02-21T07:16:41;7.20;99.90
20442;DHT22;10380;52.102;20.614;2023-02-21T07:19:08;7.20;99.90
20442;DHT22;10380;52.102;20.614;2023-02-21T07:21:35;7.20;99.90
20442;DHT22;10380;52.102;20.614;2023-02-21T07:24:02;7.20;99.90
20442;DHT22;10380;52.102;20.614;2023-02-21T07:26:28;7.20;99.90
20442;DHT22;10380;52.102;20.614;2023-02-21T07:28:55;7.20;99.90
20442;DHT22;10380;52.102;20.614;2023-02-21T07:31:22;7.20;99.90
20442;DHT22;10380;52.102;20.614;2023-02-21T07:33:49;7.20;99.90
20442;DHT22;10380;52.102;20.614;2023-02-21T07:36:16;7.10;99.90
20442;DHT22;10380;52.102;20.614;2023-02-21T07:38:43;7.10;99.90
20442;DHT22;10380;52.102;20.614;2023-02-21T07:41:12;7.00;99.90
20442;DHT22;10380;52.102;20.614;2023-02-21T07:43:40;6.80;99.90
20442;DHT22;10380;52.102;20.614;2023-02-21T07:46:11;6.80;99.90
20442;DHT22;10380;52.102;20.614;2023-02-21T07:48:38;6.70;99.90
20442;DHT22;10380;52.102;20.614;2023-02-21T07:51:07;6.70;99.90
20442;DHT22;10380;52.102;20.614;2023-02-21T07:53:34;6.70;99.90
20442;DHT22;10380;52.102;20.614;2023-02-21T07:56:02;6.70;99.90
20442;DHT22;10380;52.102;20.614;2023-02-21T07:58:29;6.80;99.90
20442;DHT22;10380;52.102;20.614;2023-02-21T08:00:57;6.80;99.90
20442;DHT22;10380;52.102;20.614;2023-02-21T08:03:24;6.80;99.90
20442;DHT22;10380;52.102;20.614;2023-02-21T08:05:51;6.80;99.90
20442;DHT22;10380;52.102;20.614;2023-02-21T08:08:18;6.80;99.90
20442;DHT22;10380;52.102;20.614;2023-02-21T08:10:45;6.80;99.90
20442;DHT22;10380;52.102;20.614;2023-02-21T08:13:12;6.80;99.90
20442;DHT22;10380;52.102;20.614;2023-02-21T08:15:39;6.80;99.90
20442;DHT22;10380;52.102;20.614;2023-02-21T08:18:10;6.90;99.90
20442;DHT22;10380;52.102;20.614;2023-02-21T08:20:44;6.80;99.90
20442;DHT22;10380;52.102;20.614;2023-02-21T08:23:11;6.80;99.90
20442;DHT22;10380;52.102;20.614;2023-02-21T08:25:38;6.90;99.90
20442;DHT22;10380;52.102;20.614;2023-02-21T08:28:05;6.90;99.90
20442;DHT22;10380;52.102;20.614;2023-02-21T08:30:32;6.90;99.90
20442;DHT22;10380;52.102;20.614;2023-02-21T08:32:59;6.90;99.90
20442;DHT22;10380;52.102;20.614;2023-02-21T08:35:26;6.90;99.90
20442;DHT22;10380;52.102;20.614;2023-02-21T08:37:53;6.90;99.90
20442;DHT22;10380;52.102;20.614;2023-02-21T08:40:23;6.90;99.90
20442;DHT22;10380;52.102;20.614;2023-02-21T08:42:51;6.80;99.90
20442;DHT22;10380;52.102;20.614;2023-02-21T08:45:20;6.80;99.90
20442;DHT22;10380;52.102;20.614;2023-02-21T08:47:47;6.80;99.90
20442;DHT22;10380;52.102;20.614;2023-02-21T08:50:15;6.90;99.90
20442;DHT22;10380;52.102;20.614;2023-02-21T08:52:42;6.80;99.90
20442;DHT22;10380;52.102;20.614;2023-02-21T08:55:11;6.90;99.90
20442;DHT22;10380;52.102;20.614;2023-02-21T08:57:38;6.90;99.90
20442;DHT22;10380;52.102;20.614;2023-02-21T09:00:06;6.90;99.90
20442;DHT22;10380;52.102;20.614;2023-02-21T09:02:36;6.90;99.90
20442;DHT22;10380;52.102;20.614;2023-02-21T09:05:13;7.00;99.90
20442;DHT22;10380;52.102;20.614;2023-02-21T09:07:41;7.00;99.90
20442;DHT22;10380;52.102;20.614;2023-02-21T09:10:09;7.10;99.90
20442;DHT22;10380;52.102;20.614;2023-02-21T09:12:37;7.10;99.90
20442;DHT22;10380;52.102;20.614;2023-02-21T09:15:05;7.20;99.90
20442;DHT22;10380;52.102;20.614;2023-02-21T09:17:32;7.20;99.90
20442;DHT22;10380;52.102;20.614;2023-02-21T09:20:05;7.30;99.90
20442;DHT22;10380;52.102;20.614;2023-02-21T09:22:34;7.40;99.90
20442;DHT22;10380;52.102;20.614;2023-02-21T09:25:02;7.50;99.90
20442;DHT22;10380;52.102;20.614;2023-02-21T09:27:29;7.60;99.90
20442;DHT22;10380;52.102;20.614;2023-02-21T09:30:20;7.70;99.90
20442;DHT22;10380;52.102;20.614;2023-02-21T09:32:49;7.90;99.90
20442;DHT22;10380;52.102;20.614;2023-02-21T09:35:17;8.00;99.90
20442;DHT22;10380;52.102;20.614;2023-02-21T09:37:45;7.90;99.90
20442;DHT22;10380;52.102;20.614;2023-02-21T09:40:36;8.00;99.90
20442;DHT22;10380;52.102;20.614;2023-02-21T09:43:11;8.00;99.90
20442;DHT22;10380;52.102;20.614;2023-02-21T09:45:41;8.00;99.90
20442;DHT22;10380;52.102;20.614;2023-02-21T09:48:16;8.00;99.90
20442;DHT22;10380;52.102;20.614;2023-02-21T09:50:53;8.10;99.90
20442;DHT22;10380;52.102;20.614;2023-02-21T09:53:30;8.10;99.90
20442;DHT22;10380;52.102;20.614;2023-02-21T09:56:20;8.10;99.90
20442;DHT22;10380;52.102;20.614;2023-02-21T09:58:51;8.10;99.90
20442;DHT22;10380;52.102;20.614;2023-02-21T10:01:24;8.20;99.90
20442;DHT22;10380;52.102;20.614;2023-02-21T10:06:47;8.20;99.90
20442;DHT22;10380;52.102;20.614;2023-02-21T10:17:26;8.10;99.90
20442;DHT22;10380;52.102;20.614;2023-02-21T10:19:58;8.00;99.90
20442;DHT22;10380;52.102;20.614;2023-02-21T10:22:30;8.10;99.90
20442;DHT22;10380;52.102;20.614;2023-02-21T10:25:00;8.10;99.90
20442;DHT22;10380;52.102;20.614;2023-02-21T10:27:30;8.10;99.90
20442;DHT22;10380;52.102;20.614;2023-02-21T10:30:07;8.10;99.90
20442;DHT22;10380;52.102;20.614;2023-02-21T10:32:37;8.10;99.90
20442;DHT22;10380;52.102;20.614;2023-02-21T10:35:04;8.10;99.90
20442;DHT22;10380;52.102;20.614;2023-02-21T10:37:52;8.10;99.90
20442;DHT22;10380;52.102;20.614;2023-02-21T10:40:35;8.20;99.90
20442;DHT22;10380;52.102;20.614;2023-02-21T10:43:07;8.20;99.90
20442;DHT22;10380;52.102;20.614;2023-02-21T10:45:44;8.30;99.90
20442;DHT22;10380;52.102;20.614;2023-02-21T10:48:13;8.20;99.90
20442;DHT22;10380;52.102;20.614;2023-02-21T10:53:27;8.20;99.90
20442;DHT22;10380;52.102;20.614;2023-02-21T10:56:23;8.30;99.90
20442;DHT22;10380;52.102;20.614;2023-02-21T11:04:03;8.30;99.90
20442;DHT22;10380;52.102;20.614;2023-02-21T11:06:34;8.40;99.90
20442;DHT22;10380;52.102;20.614;2023-02-21T11:12:22;8.40;99.90
20442;DHT22;10380;52.102;20.614;2023-02-21T11:17:24;8.30;99.90
20442;DHT22;10380;52.102;20.614;2023-02-21T11:19:55;8.30;99.90
20442;DHT22;10380;52.102;20.614;2023-02-21T11:22:25;8.30;99.90
20442;DHT22;10380;52.102;20.614;2023-02-21T11:25:25;8.40;99.90
20442;DHT22;10380;52.102;20.614;2023-02-21T11:28:16;8.40;99.90
20442;DHT22;10380;52.102;20.614;2023-02-21T11:31:07;8.40;99.90
20442;DHT22;10380;52.102;20.614;2023-02-21T11:34:03;8.40;99.90
20442;DHT22;10380;52.102;20.614;2023-02-21T11:36:34;8.30;99.90
20442;DHT22;10380;52.102;20.614;2023-02-21T11:41:49;8.20;99.90
20442;DHT22;10380;52.102;20.614;2023-02-21T11:54:53;7.70;99.90
20442;DHT22;10380;52.102;20.614;2023-02-21T11:57:32;7.60;99.90
20442;DHT22;10380;52.102;20.614;2023-02-21T12:28:38;7.20;99.90
20442;DHT22;10380;52.102;20.614;2023-02-21T12:39:42;7.50;99.90
20442;DHT22;10380;52.102;20.614;2023-02-21T12:42:40;7.50;99.90
20442;DHT22;10380;52.102;20.614;2023-02-21T12:48:04;7.70;99.90
20442;DHT22;10380;52.102;20.614;2023-02-21T12:50:39;7.70;99.90
20442;DHT22;10380;52.102;20.614;2023-02-21T12:53:18;7.70;99.90
20442;DHT22;10380;52.102;20.614;2023-02-21T12:56:14;7.60;99.90
20442;DHT22;10380;52.102;20.614;2023-02-21T12:58:48;7.50;99.90
20442;DHT22;10380;52.102;20.614;2023-02-21T13:01:22;7.50;99.90
20442;DHT22;10380;52.102;20.614;2023-02-21T13:04:05;7.40;99.90
20442;DHT22;10380;52.102;20.614;2023-02-21T13:06:48;7.30;99.90
20442;DHT22;10380;52.102;20.614;2023-02-21T13:09:24;7.30;99.90
20442;DHT22;10380;52.102;20.614;2023-02-21T13:12:08;7.30;99.90
20442;DHT22;10380;52.102;20.614;2023-02-21T13:14:52;7.30;99.90
20442;DHT22;10380;52.102;20.614;2023-02-21T13:17:22;7.30;99.90
20442;DHT22;10380;52.102;20.614;2023-02-21T13:20:02;7.40;99.90
20442;DHT22;10380;52.102;20.614;2023-02-21T13:22:34;7.40;99.90
20442;DHT22;10380;52.102;20.614;2023-02-21T13:28:18;7.50;99.90
20442;DHT22;10380;52.102;20.614;2023-02-21T13:30:51;7.50;99.90
20442;DHT22;10380;52.102;20.614;2023-02-21T13:36:01;7.60;99.90
20442;DHT22;10380;52.102;20.614;2023-02-21T13:38:42;7.60;99.90
20442;DHT22;10380;52.102;20.614;2023-02-21T13:41:11;7.60;99.90
20442;DHT22;10380;52.102;20.614;2023-02-21T13:43:49;7.70;99.90
20442;DHT22;10380;52.102;20.614;2023-02-21T14:05:24;7.60;99.90
20442;DHT22;10380;52.102;20.614;2023-02-21T14:08:06;7.70;99.90
20442;DHT22;10380;52.102;20.614;2023-02-21T14:10:39;7.70;99.90
20442;DHT22;10380;52.102;20.614;2023-02-21T14:13:37;7.70;99.90
20442;DHT22;10380;52.102;20.614;2023-02-21T14:24:23;7.70;99.90
20442;DHT22;10380;52.102;20.614;2023-02-21T14:32:40;7.70;99.90
20442;DHT22;10380;52.102;20.614;2023-02-21T14:35:30;7.80;99.90
20442;DHT22;10380;52.102;20.614;2023-02-21T14:38:04;7.80;99.90
20442;DHT22;10380;52.102;20.614;2023-02-21T14:44:14;7.80;99.90
20442;DHT22;10380;52.102;20.614;2023-02-21T14:47:15;7.80;99.90
20442;DHT22;10380;52.102;20.614;2023-02-21T14:50:10;7.80;99.90
20442;DHT22;10380;52.102;20.614;2023-02-21T15:01:46;7.70;99.90
20442;DHT22;10380;52.102;20.614;2023-02-21T15:06:52;7.50;99.90
20442;DHT22;10380;52.102;20.614;2023-02-21T15:09:21;7.50;99.90
20442;DHT22;10380;52.102;20.614;2023-02-21T15:11:48;7.50;99.90
20442;DHT22;10380;52.102;20.614;2023-02-21T15:14:24;7.50;99.90
20442;DHT22;10380;52.102;20.614;2023-02-21T15:17:00;7.50;99.90
20442;DHT22;10380;52.102;20.614;2023-02-21T15:19:30;7.50;99.90
20442;DHT22;10380;52.102;20.614;2023-02-21T15:22:18;7.50;99.90
20442;DHT22;10380;52.102;20.614;2023-02-21T15:27:51;7.40;99.90
20442;DHT22;10380;52.102;20.614;2023-02-21T15:30:28;7.40;99.90
20442;DHT22;10380;52.102;20.614;2023-02-21T15:33:05;7.40;99.90
20442;DHT22;10380;52.102;20.614;2023-02-21T15:35:38;7.40;99.90
20442;DHT22;10380;52.102;20.614;2023-02-21T15:38:19;7.40;99.90
20442;DHT22;10380;52.102;20.614;2023-02-21T15:40:49;7.40;99.90
20442;DHT22;10380;52.102;20.614;2023-02-21T15:43:27;7.40;99.90
20442;DHT22;10380;52.102;20.614;2023-02-21T15:45:57;7.40;99.90
20442;DHT22;10380;52.102;20.614;2023-02-21T15:48:25;7.30;99.90
20442;DHT22;10380;52.102;20.614;2023-02-21T15:50:52;7.30;99.90
20442;DHT22;10380;52.102;20.614;2023-02-21T15:53:22;7.30;99.90
20442;DHT22;10380;52.102;20.614;2023-02-21T15:55:51;7.30;99.90
20442;DHT22;10380;52.102;20.614;2023-02-21T15:58:21;7.30;99.90
20442;DHT22;10380;52.102;20.614;2023-02-21T16:01:09;7.30;99.90
20442;DHT22;10380;52.102;20.614;2023-02-21T16:03:39;7.30;99.90
20442;DHT22;10380;52.102;20.614;2023-02-21T16:06:19;7.30;99.90
20442;DHT22;10380;52.102;20.614;2023-02-21T16:14:37;7.20;99.90
20442;DHT22;10380;52.102;20.614;2023-02-21T16:20:17;7.20;99.90
20442;DHT22;10380;52.102;20.614;2023-02-21T16:22:50;7.20;99.90
20442;DHT22;10380;52.102;20.614;2023-02-21T16:25:33;7.20;99.90
20442;DHT22;10380;52.102;20.614;2023-02-21T16:28:01;7.20;99.90
20442;DHT22;10380;52.102;20.614;2023-02-21T16:30:30;7.20;99.90
20442;DHT22;10380;52.102;20.614;2023-02-21T16:33:03;7.20;99.90
20442;DHT22;10380;52.102;20.614;2023-02-21T16:35:31;7.20;99.90
20442;DHT22;10380;52.102;20.614;2023-02-21T16:37:59;7.20;99.90
20442;DHT22;10380;52.102;20.614;2023-02-21T16:40:29;7.20;99.90
20442;DHT22;10380;52.102;20.614;2023-02-21T16:42:57;7.20;99.90
20442;DHT22;10380;52.102;20.614;2023-02-21T16:45:24;7.20;99.90
20442;DHT22;10380;52.102;20.614;2023-02-21T16:47:56;7.10;99.90
20442;DHT22;10380;52.102;20.614;2023-02-21T16:52:56;7.10;99.90
20442;DHT22;10380;52.102;20.614;2023-02-21T16:55:23;7.10;99.90
20442;DHT22;10380;52.102;20.614;2023-02-21T16:57:57;7.10;99.90
20442;DHT22;10380;52.102;20.614;2023-02-21T17:00:25;7.10;99.90
20442;DHT22;10380;52.102;20.614;2023-02-21T17:02:52;7.10;99.90
20442;DHT22;10380;52.102;20.614;2023-02-21T17:05:20;7.10;99.90
20442;DHT22;10380;52.102;20.614;2023-02-21T17:07:48;7.10;99.90
20442;DHT22;10380;52.102;20.614;2023-02-21T17:10:16;7.10;99.90
20442;DHT22;10380;52.102;20.614;2023-02-21T17:12:43;7.10;99.90
20442;DHT22;10380;52.102;20.614;2023-02-21T17:15:10;7.10;99.90
20442;DHT22;10380;52.102;20.614;2023-02-21T17:17:38;7.10;99.90
20442;DHT22;10380;52.102;20.614;2023-02-21T17:20:06;7.10;99.90
20442;DHT22;10380;52.102;20.614;2023-02-21T17:22:33;7.10;99.90
20442;DHT22;10380;52.102;20.614;2023-02-21T17:25:02;7.10;99.90
20442;DHT22;10380;52.102;20.614;2023-02-21T17:27:29;7.10;99.90
20442;DHT22;10380;52.102;20.614;2023-02-21T17:29:56;7.10;99.90
20442;DHT22;10380;52.102;20.614;2023-02-21T17:32:22;7.10;99.90
20442;DHT22;10380;52.102;20.614;2023-02-21T17:34:49;7.00;99.90
20442;DHT22;10380;52.102;20.614;2023-02-21T17:37:16;7.10;99.90
20442;DHT22;10380;52.102;20.614;2023-02-21T17:39:43;7.10;99.90
20442;DHT22;10380;52.102;20.614;2023-02-21T17:42:10;7.10;99.90
20442;DHT22;10380;52.102;20.614;2023-02-21T17:44:42;7.10;99.90
20442;DHT22;10380;52.102;20.614;2023-02-21T17:47:09;7.00;99.90
20442;DHT22;10380;52.102;20.614;2023-02-21T17:49:37;7.00;99.90
20442;DHT22;10380;52.102;20.614;2023-02-21T17:52:04;7.00;99.90
20442;DHT22;10380;52.102;20.614;2023-02-21T17:54:31;7.00;99.90
20442;DHT22;10380;52.102;20.614;2023-02-21T17:56:58;7.00;99.90
20442;DHT22;10380;52.102;20.614;2023-02-21T17:59:25;6.90;99.90
20442;DHT22;10380;52.102;20.614;2023-02-21T18:01:53;6.90;99.90
20442;DHT22;10380;52.102;20.614;2023-02-21T18:04:21;6.90;99.90
20442;DHT22;10380;52.102;20.614;2023-02-21T18:06:49;6.90;99.90
20442;DHT22;10380;52.102;20.614;2023-02-21T18:09:16;6.90;99.90
20442;DHT22;10380;52.102;20.614;2023-02-21T18:11:48;6.90;99.90
20442;DHT22;10380;52.102;20.614;2023-02-21T18:14:16;6.90;99.90
20442;DHT22;10380;52.102;20.614;2023-02-21T18:16:43;6.90;99.90
20442;DHT22;10380;52.102;20.614;2023-02-21T18:19:10;6.80;99.90
20442;DHT22;10380;52.102;20.614;2023-02-21T18:21:38;6.80;99.90
20442;DHT22;10380;52.102;20.614;2023-02-21T18:24:11;6.80;99.90
20442;DHT22;10380;52.102;20.614;2023-02-21T18:26:39;6.80;99.90
20442;DHT22;10380;52.102;20.614;2023-02-21T18:29:07;6.80;99.90
20442;DHT22;10380;52.102;20.614;2023-02-21T18:31:34;6.80;99.90
20442;DHT22;10380;52.102;20.614;2023-02-21T18:34:02;6.80;99.90
20442;DHT22;10380;52.102;20.614;2023-02-21T18:36:30;6.80;99.90
20442;DHT22;10380;52.102;20.614;2023-02-21T18:39:00;6.80;99.90
20442;DHT22;10380;52.102;20.614;2023-02-21T18:41:28;6.70;99.90
20442;DHT22;10380;52.102;20.614;2023-02-21T18:43:54;6.70;99.90
20442;DHT22;10380;52.102;20.614;2023-02-21T18:46:21;6.70;99.90
20442;DHT22;10380;52.102;20.614;2023-02-21T18:48:50;6.70;99.90
20442;DHT22;10380;52.102;20.614;2023-02-21T18:51:19;6.70;99.90
20442;DHT22;10380;52.102;20.614;2023-02-21T18:53:47;6.70;99.90
20442;DHT22;10380;52.102;20.614;2023-02-21T18:56:16;6.70;99.90
20442;DHT22;10380;52.102;20.614;2023-02-21T18:58:46;6.70;99.90
20442;DHT22;10380;52.102;20.614;2023-02-21T19:01:15;6.70;99.90
20442;DHT22;10380;52.102;20.614;2023-02-21T19:03:45;6.70;99.90
20442;DHT22;10380;52.102;20.614;2023-02-21T19:06:15;6.60;99.90